Pilot Magazine UKGA

About You

Log In Register UKGA membership

Flight planning

Flight planning New flightplan NOTAM map LARS map & NOTAMs Danger area, mil. & TRA activations Weather map GPS route download Find waypoints Your waypoints New waypoint

Forums

Forums Currently discussing "Is this from you as it appeared min my SCAM folder?"

Other items

Articles Events Links News Surveys Tips Other users Feedback UKGA membership About UKGA

TAFs

UK

TAF EGAA 080502Z 0806/0906 31018G28KT 9999 SCT015 BKN030 
      TEMPO 0806/0903 6000 RA SHRA BKN012 PROB40 
      TEMPO 0806/0821 30022G40KT 4000 +SHRA SHGS BKN008 BKN012CB 
      BECMG 0903/0906 27008KT
      
TAF EGAC 080656Z 0807/0815 29015G25KT 9999 FEW020 SCT030 
      TEMPO 0807/0815 7000 SHRA PROB30 
      TEMPO 0807/0815 30020G35KT 4000 +SHRA SHGS SCT008 BKN012CB
      
TAF EGAE 080656Z 0807/0815 30020G30KT 9999 SCT015 BKN030 
      TEMPO 0807/0815 30022G40KT 7000 SHRA BKN012 PROB30 
      TEMPO 0807/0815 4000 +SHRA SHGS BKN008 BKN012CB
      
TAF EGBB 080458Z 0806/0906 21015KT 9999 SCT030 
      TEMPO 0806/0812 22018G28KT 
      TEMPO 0806/0903 7000 RA SHRA BKN012 PROB30 
      TEMPO 0806/0810 3000 +SHRA BKN008 
      TEMPO 0818/0906 23018G28KT PROB30 
      TEMPO 0818/0903 3000 +SHRA BKN008
      
TAF EGBJ 071700Z 0718/0720 19012KT 9999 SCT030 
      TEMPO 0718/0720 20025G35KT 7000 SHRA BKN014 PROB30 
      TEMPO 0718/0720 3000 +SHRA
      
TAF EGCC 080456Z 0806/0912 20016KT 9999 SCT035 
      TEMPO 0806/0909 6000 RA SHRA BKN014 PROB30 
      TEMPO 0806/0904 3000 +RA +SHRA BKN008 BKN030CB 
      BECMG 0807/0810 25020KT 
      TEMPO 0807/0820 26022G32KT 
      BECMG 0820/0823 30010KT 
      TEMPO 0820/0908 31015G25KT 
      BECMG 0909/0912 24010KT
      
TAF EGCK 080457Z 0806/0815 26025G35KT 9999 SCT020 
      TEMPO 0806/0815 27030G45KT 5000 SHRA BKN010 PROB30 
      TEMPO 0806/0815 27040G55KT 3000 +SHRA BKN006 BKN025CB
      
TAF EGCN 080456Z 0806/0906 20015KT 9999 SCT030 
      TEMPO 0806/0818 21018G32KT 
      TEMPO 0806/0903 6000 RA SHRA BKN014 PROB30 
      TEMPO 0806/0824 3000 +RA +SHRA BKN008 
      BECMG 0819/0822 22005KT 
      BECMG 0902/0905 27015KT
      
TAF EGDM 071337Z 0715/0719 21015G25KT 9999 FEW035
      
TAF EGDR 080535Z 0807/0816 28018G30KT 9999 SCT030 
      TEMPO 0807/0816 8000 -SHRA FEW010 BKN018TCU PROB30 
      TEMPO 0807/0816 28028G40KT 4000 SHRAGS FEW008 BKN016CB
      
TAF EGDY 080600Z 0806/0815 22010G20KT 9999 SCT040 
      BECMG 0808/0810 27015G25KT 
      TEMPO 0809/0815 27015G30KT 4000 SHRA SCT030TCU
      
TAF AMD EGEC 071538Z 0715/0718 12027KT 9999 SCT015 
      TEMPO 0715/0718 13030G45KT 6000 SHRA BKN010 PROB30 
      TEMPO 0715/0718 3000 +TSRA BKN008 BKN015CB
      
TAF EGEO 071402Z 0715/0717 10022G35KT 9999 SCT016 
      TEMPO 0715/0717 6000 RA BKN012 PROB30 
      TEMPO 0715/0717 11029G45KT 3000 +RA RASN BKN008
      
TAF EGFF 080500Z 0806/0906 27025G40KT 9999 SCT028 
      TEMPO 0806/0821 6000 RA SHRA PROB30 
      TEMPO 0806/0821 4000 +RA +SHRA BKN014 
      BECMG 0823/0902 28018G30KT 
      BECMG 0903/0906 29012KT
      
TAF EGGD 080500Z 0806/0906 27022G35KT 9999 SCT025 
      TEMPO 0806/0824 6000 RA SHRA PROB30 
      TEMPO 0806/0812 27026G45KT PROB30 
      TEMPO 0806/0821 2500 +RA +SHRA BKN008 
      BECMG 0900/0903 28015G25KT 
      BECMG 0903/0906 28010KT
      
TAF EGGP 080456Z 0806/0906 20019G32KT 9999 SCT035 
      BECMG 0806/0808 27025G35KT 
      TEMPO 0806/0906 6000 RA SHRA BKN014 PROB30 
      TEMPO 0806/0824 3000 +RA +SHRA BKN008 BKN030CB 
      BECMG 0820/0823 30015KT 
      TEMPO 0820/0906 31015G25KT
      
TAF EGGW 080501Z 0806/0906 21017G27KT 9999 SCT025 
      TEMPO 0809/0813 6000 RA SHRA BKN012 
      BECMG 0814/0817 24010KT 
      BECMG 0818/0821 25015G25KT 
      TEMPO 0820/0906 6000 RA SHRA BKN012 PROB40 
      TEMPO 0820/0904 BKN007 
      BECMG 0903/0906 26010KT
      
TAF EGHC 071402Z 0715/0718 25028G38KT 9999 SCT025 
      TEMPO 0715/0718 6000 SHRA BKN012 PROB30 
      TEMPO 0715/0718 25035G50KT +SHRA SHGS
      
TAF AMD EGHE 071511Z 0715/0718 25025G36KT 9999 SCT030 
      TEMPO 0715/0718 26035G45KT 6000 SHRA PROB30 
      TEMPO 0715/0718 3000 +SHRA SHGS
      
TAF EGHH 080710Z 0807/0815 25012KT 9999 FEW045 
      TEMPO 0807/0815 26015G25KT PROB30 
      TEMPO 0810/0813 7000 RA SHRA BKN012
      
TAF EGHI 080635Z 0806/0815 23012KT 9999 FEW045 
      TEMPO 0806/0815 26015G25KT PROB30 
      TEMPO 0812/0815 7000 RA SHRA BKN012
      
TAF EGHQ 080454Z 0806/0815 28022G32KT 9999 SCT030 
      TEMPO 0806/0815 6000 SHRA PROB30 
      TEMPO 0806/0815 29028G45KT
      
TAF EGJA 071907Z 0719/0800 CNL
      
TAF EGJB 080500Z 0806/0815 27014KT 9999 FEW015CB SCT035 
      TEMPO 0806/0815 27015G25KT 7000 SHRA BKN015CB PROB40 
      TEMPO 0806/0808 27025G40KT 3000 SHGS PROB30 
      TEMPO 0806/0815 4000 TSRAGS
      
TAF EGJJ 080500Z 0806/0815 26012KT 9999 FEW015CB SCT025 BKN036 
      TEMPO 0806/0815 27015G25KT 7000 SHRA BKN015CB PROB40 
      TEMPO 0806/0808 27025G40KT 3000 SHGS PROB30 
      TEMPO 0806/0815 4000 TSRAGS
      
TAF AMD EGKA 071826Z 0718/0720 23005KT 9999 SCT025 
      BECMG 0718/0720 23015G25KT PROB30 
      TEMPO 0718/0720 24025G35KT 6000 SHRA BKN014
      
TAF EGKB 080657Z 0807/0815 22012KT 9999 FEW030 
      TEMPO 0807/0815 23015G28KT PROB30 
      TEMPO 0807/0815 6000 SHRA BKN014
      
TAF EGKK 080454Z 0806/0912 20009KT 9999 FEW035 PROB40 
      TEMPO 0806/0815 22015G28KT PROB30 
      TEMPO 0806/0820 6000 SHRA BKN014 
      BECMG 0815/0818 26012KT PROB40 
      TEMPO 0820/0904 25015G25KT 6000 SHRA RA BKN009
      
TAF EGLC 080457Z 0806/0815 23012KT 9999 FEW030 PROB40 
      TEMPO 0806/0815 23015G28KT PROB30 
      TEMPO 0806/0815 6000 SHRA BKN014
      
TAF EGLF 080657Z 0807/0815 22012KT 9999 FEW035 PROB40 
      TEMPO 0807/0815 23015G28KT PROB30 
      TEMPO 0807/0815 6000 SHRA BKN014
      
TAF EGLL 080453Z 0806/0912 23012KT 9999 FEW030 PROB30 
      TEMPO 0806/0824 24016G26KT PROB30 
      TEMPO 0809/0819 7000 SHRA BKN012 PROB40 
      TEMPO 0819/0901 6000 SHRA BKN008
      
TAF EGMC 080457Z 0806/0815 22012KT 9999 FEW025 
      BECMG 0806/0809 24015G28KT PROB30 
      TEMPO 0806/0815 6000 SHRA BKN014
      
TAF EGMD 080457Z 0806/0815 23015G25KT 9999 FEW020 PROB40 
      TEMPO 0806/0815 24025G35KT 4000 +SHRA BKN014
      
TAF EGNH 071712Z 0718/0721 16020G38KT 9999 SCT025 
      TEMPO 0718/0721 18030G42KT 6000 SHRA BKN014
      
TAF EGNJ 080457Z 0806/0815 19017KT 9999 SCT040 
      TEMPO 0806/0815 18020G32KT 6000 SHRA BKN014 PROB30 
      TEMPO 0806/0815 3000 +SHRA BKN008 
      BECMG 0809/0812 22020G32KT
      
TAF AMD EGNM 080725Z 0807/0906 16015KT 9999 SCT030 
      TEMPO 0807/0809 3000 RASN BKN010 PROB30 
      TEMPO 0807/0824 1400 +RA +SHRA BKN004 
      BECMG 0808/0811 25015KT 
      TEMPO 0808/0817 26018G28KT 
      TEMPO 0809/0824 6000 RA SHRA BKN010 
      BECMG 0817/0820 23005KT 
      BECMG 0823/0902 27015KT
      
TAF AMD EGNO 071708Z 0717/0719 15016KT 9999 SCT020 
      TEMPO 0717/0719 18020G35KT 6000 SHRA BKN014
      
TAF EGNR 071712Z 0718/0721 17017KT 9999 SCT020 
      BECMG 0718/0720 20022G32KT 
      TEMPO 0718/0721 21028G42KT 6000 SHRA BKN014 PROB30 
      TEMPO 0718/0721 4000 +SHRA BKN009 BKN030CB
      
TAF EGNS 080500Z 0806/0815 28025KT 9999 SCT012 BKN020 
      TEMPO 0806/0815 28030G40KT 5000 RA SHRA BKN012
      
TAF EGNT 080456Z 0806/0906 15012KT 9999 SCT025 
      TEMPO 0806/0818 6000 RA SHRA BKN010 PROB30 
      TEMPO 0811/0814 VRB03KT BKN006 
      BECMG 0814/0817 26008KT
      
TAF EGNV 080654Z 0806/0815 16012KT 9999 SCT020 
      TEMPO 0806/0815 6000 RA SHRA BKN014 PROB30 
      TEMPO 0806/0815 3000 +RA +SHRA BKN008 
      TEMPO 0811/0815 VRB03KT
      
TAF EGNX 080458Z 0806/0906 20018G28KT 9999 SCT030 
      TEMPO 0806/0812 21020G38KT 
      TEMPO 0806/0904 7000 RA SHRA BKN012 PROB30 
      TEMPO 0806/0811 3000 +SHRA BKN008 
      BECMG 0815/0818 23015KT 
      TEMPO 0818/0906 24018G30KT PROB30 
      TEMPO 0818/0904 3000 +SHRA BKN006
      
TAF EGOS 080655Z 0806/0815 23015G25KT 9999 BKN025 
      TEMPO 0806/0815 26020G30KT 6000 SHRA BKN020 PROB30 
      TEMPO 0806/0811 SCT012 BKN018 PROB30 
      TEMPO 0811/0815 3500 +SHRA BKN018CB
      
TAF EGOV 080611Z 0808/0815 28032G45KT 9999 SCT014 
      BECMG 0808/0810 SCT022 
      TEMPO 0808/0815 7000 SHRA PROB30 
      TEMPO 0808/0815 3000 +SHRA SCT018CB
      
TAF EGOW 071056Z 0712/0718 14032G45KT 7000 RA FEW008 BKN015 
      TEMPO 0712/0714 3000 +RA BKN007 
      BECMG 0714/0716 17025G37KT 9999 NSW FEW018
      
TAF AMD EGPA 080641Z 0806/0815 10022G32KT 9999 BKN020 
      TEMPO 0806/0815 6000 RA SHRA BKN014CB PROB30 
      TEMPO 0806/0808 11030G42KT PROB30 
      TEMPO 0807/0815 3000 +SHRAGS BKN007
      
TAF EGPB 080500Z 0806/0815 12035G45KT 9999 SCT012 BKN015 
      TEMPO 0806/0815 6000 RA SHRA BKN012 PROB40 
      TEMPO 0806/0812 11045G55KT 3000 +RA BKN006 PROB30 
      TEMPO 0812/0815 3000 +RA BKN004
      
TAF EGPC 080500Z 0806/0815 11030G40KT 9999 BKN015 
      BECMG 0806/0809 10020G30KT 
      TEMPO 0806/0815 6000 SHRA BKN014 PROB30 
      TEMPO 0806/0815 3000 +SHRAGS BKN009 BKN015CB 
      BECMG 0813/0815 09014KT
      
TAF EGPD 080458Z 0806/0906 12015KT 9999 SCT020 BKN035 
      TEMPO 0806/0901 6000 SHRA BKN014CB 
      TEMPO 0806/0813 12018G28KT PROB30 
      TEMPO 0806/0901 3000 +SHRAGS BKN008 
      BECMG 0815/0818 01008KT 
      BECMG 0822/0901 30010KT PROB30 
      TEMPO 0901/0905 BKN008
      
TAF EGPE 080500Z 0806/0815 04009KT 9999 FEW025 PROB40 
      TEMPO 0806/0815 6000 SHRA BKN012
      
TAF EGPF 080458Z 0806/0906 06007KT 9999 BKN020 
      TEMPO 0806/0814 BKN012 PROB30 
      TEMPO 0806/0813 4000 RA SHRA BKN006 
      BECMG 0808/0811 30010KT PROB30 0815/0821 6000 PROB40 
      TEMPO 0904/0906 6000 SHRA BKN012
      
TAF EGPH 080458Z 0806/0906 07008KT 9999 BKN020 
      TEMPO 0806/0818 BKN012 PROB30 
      TEMPO 0806/0817 4000 RA SHRA BKN008 
      BECMG 0812/0815 31010KT
      
TAF EGPI 080455Z 0806/0815 34012KT 9999 SCT030 
      TEMPO 0806/0815 6000 RA SHRA PROB30 
      TEMPO 0806/0815 33015G25KT 4000 +SHRA BKN012CB
      
TAF EGPK 080458Z 0806/0906 02010KT 9999 BKN020 
      TEMPO 0806/0816 8000 -RA BKN012 PROB30 
      TEMPO 0806/0813 4000 RA SHRA BKN006 
      BECMG 0809/0812 32009KT PROB30 
      TEMPO 0904/0906 6000 SHRA BKN012
      
TAF EGPL 080500Z 0806/0815 03009KT 9999 FEW020 PROB30 
      TEMPO 0806/0815 6000 SHRA
      
TAF EGPN 080703Z 0807/0815 10009KT 9999 SCT020 
      TEMPO 0807/0812 5000 SHRA BKN012 PROB30 
      TEMPO 0807/0812 BKN008 PROB40 
      TEMPO 0812/0815 6000 SHRA BKN012
      
TAF EGPO 080500Z 0806/0815 07014KT 9999 FEW020 PROB30 
      TEMPO 0807/0814 07017G27KT PROB30 
      TEMPO 0811/0814 6000 SHRA BKN012
      
TAF EGPU 080455Z 0806/0815 02014KT 9999 SCT025 PROB30 
      TEMPO 0806/0815 6000 SHRA
      
TAF EGQL 080450Z 0806/0815 10015KT 9999 SCT030 PROB30 
      TEMPO 0806/0815 5000 SHRA SCT010 BKN015 
      BECMG 0812/0815 04005KT
      
TAF EGQS 080453Z 0806/0824 10014KT 9999 FEW018 PROB40 
      TEMPO 0806/0813 7000 SHRA SCT018 PROB40 
      TEMPO 0806/0811 10015G25KT 
      TEMPO 0813/0824 7000 SHRA SCT020 PROB30 
      TEMPO 0813/0820 3000 +SHGS +SHRA SCT012 BKN018CB
      
TAF EGSC 071357Z 0715/0717 14018G32KT 9999 SCT020 
      BECMG 0715/0717 20015G25KT 
      TEMPO 0715/0717 4000 +RA BKN008
      
TAF EGSH 080458Z 0806/0815 19015KT 9999 FEW035 
      TEMPO 0806/0815 20018G28KT PROB30 
      TEMPO 0812/0815 6000 SHRA BKN014
      
TAF EGSS 080501Z 0806/0912 21017G27KT 9999 SCT028 
      TEMPO 0811/0815 6000 RA SHRA BKN012 
      BECMG 0815/0818 24012KT 
      BECMG 0819/0822 25015G25KT 
      TEMPO 0821/0907 6000 RA SHRA BKN012 PROB40 
      TEMPO 0821/0904 BKN007 
      BECMG 0903/0906 26010KT
      
TAF EGTC 071701Z 0717/0719 20006KT 9999 SCT020 PROB40 
      TEMPO 0717/0719 22015G25KT
      
TAF EGTE 071959Z 0721/0804 23015G25KT 9999 SCT030 
      TEMPO 0721/0804 24025G35KT 6000 SHRA PROB30 
      TEMPO 0721/0804 3000 +SHRA BKN012
      
TAF EGTK 080624Z 0806/0815 24012KT 9999 FEW030 
      TEMPO 0806/0815 24018G28KT PROB30 
      TEMPO 0806/0815 6000 SHRA BKN014
      
TAF EGUB 080707Z 0807/0815 21015G25KT 9999 SCT040 
      TEMPO 0811/0815 SCT018
      
TAF EGUL 080600Z 0806/0912 22015G20KT 9999 FEW020 SCT050 QNH2905INS 
      BECMG 0808/0809 21015G25KT 9999 SCT015 BKN050 620503 QNH2906INS 
      TEMPO 0811/0815 23020G30KT BKN015 620306 510006 
      BECMG 0817/0818 23012G18KT 9999 BKN030 620404 QNH2930INS 
      BECMG 0820/0821 23012G18KT 8000 -SHRA SCT015 BKN020 610206 QNH2934INS 
      TEMPO 0823/0904 6000 -SHRA BKN015 OVC040 
      BECMG 0904/0905 26012G18KT 9999 NSW BKN020 620205 QNH2944INS TX07/0815Z TN03/0902Z
      
TAF EGUN 080400Z 0804/0910 20012G20KT 9999 FEW040 FEW100 BKN200 520009 QNH2902INS 
      BECMG 0808/0809 22015G30KT 9999 VCSH FEW015 BKN025 BKN080 600406 520006 QNH2906INS 
      TEMPO 0811/0816 23025G35KT 5000 SHRA BR BKN015 OVC040 610309 520001 540107 
      BECMG 0817/0818 24015G20KT 9999 NSW FEW020 BKN040 620404 510005 QNH2929INS 
      BECMG 0821/0822 24012G18KT 9999 FEW012 BKN022 QNH2936INS 
      TEMPO 0822/0901 23012G20KT 
      BECMG 0900/0901 24010G15KT 8000 -SHRA SCT008 OVC015 620256 QNH2938INS 
      BECMG 0905/0906 26012G18KT 9999 NSW FEW012 BKN020 OVC030 620253 QNH2946INS 
      BECMG 0908/0909 26012G18KT 9999 SCT030 QNH2950INS TX07/0814Z TN03/0807Z
      
TAF EGUW 080705Z 0807/0815 20016G26KT 9999 FEW030 
      BECMG 0811/0813 BKN018 PROB40 
      TEMPO 0811/0815 6000 -RA SCT012
      
TAF EGVA 080530Z 0805/0911 25015G25KT 9999 FEW030 SCT045 530006 QNH2904INS 
      TEMPO 0805/0808 25018G35KT 8000 -RA 
      BECMG 0807/0808 25015G25KT 9999 OVC025 520006 QNH2908INS 
      TEMPO 0808/0812 25018G35KT 8000 -RA 
      BECMG 0814/0815 25015G25KT 9999 FEW010 SCT045 530006 QNH2916INS 
      BECMG 0817/0819 23012G18KT 9999 BKN030 QNH2921INS 
      TEMPO 0819/0822 23015G25KT 8000 -RA TX07/0815Z TN04/0822Z
      
TAF EGVN 080448Z 0806/0906 23015G25KT 9999 SCT030 PROB30 
      TEMPO 0806/0808 4000 SHRA BKN020 PROB40 
      TEMPO 0808/0813 6000 RA SCT018 PROB30 
      TEMPO 0813/0817 SCT022 
      BECMG 0816/0818 25012KT 
      TEMPO 0817/0901 5000 RA BKN020 PROB40 
      TEMPO 0901/0906 SCT020
      
TAF EGVO 080626Z 0808/0818 22016G26KT 9999 FEW030 
      BECMG 0810/0813 25016G26KT 
      TEMPO 0810/0815 6000 SHRA SCT016
      
TAF EGVP 071345Z 0715/0724 22012KT 9999 FEW030 
      TEMPO 0715/0718 22015G25KT
      
TAF EGWC 070856Z 0709/0718 CNL
      
TAF EGWU 080449Z 0806/0824 23013KT 9999 FEW032 
      BECMG 0808/0811 24015G25KT 
      TEMPO 0811/0816 -RA BKN018 PROB30 
      TEMPO 0812/0814 6000 RA BKN014 
      BECMG 0813/0815 24014KT 
      TEMPO 0818/0824 24015G25KT -RA BKN018 PROB30 
      TEMPO 0820/0824 5000 RA BKN014
      
TAF EGXC 080418Z 0806/0824 20022G32KT 9999 SCT030 
      TEMPO 0806/0824 -SHRA SCT018 PROB30 
      TEMPO 0809/0824 6000 SHRA 
      BECMG 0812/0815 23020G30KT 
      BECMG 0819/0821 23015KT
      
TAF EGXE 071345Z 0715/0723 14015G25KT 9999 BKN020 
      TEMPO 0715/0717 16020G35KT 6000 RA BKN012 
      BECMG 0716/0718 FEW020 PROB40 
      TEMPO 0718/0723 16020G35KT SCT020
      
TAF EGXP 080452Z 0806/0815 21023G33KT 9999 BKN025 
      TEMPO 0806/0815 -RA BKN016 PROB30 
      TEMPO 0808/0813 6000 SHRA BKN010
      
TAF EGXT 080455Z 0806/0815 23022G33KT 9999 FEW020 BKN040 
      TEMPO 0807/0815 7000 -SHRA SCT020 PROB30 
      TEMPO 0809/0813 4000 SHRA BKN014TCU
      
TAF EGXW 080452Z 0806/0824 21023G33KT 9999 BKN025 
      TEMPO 0806/0824 -RA BKN016 PROB30 
      TEMPO 0808/0813 6000 SHRA BKN010 PROB30 
      TEMPO 0818/0824 6000 RA BKN007 
      BECMG 0818/0821 23014KT
      
TAF EGYD 080620Z 0806/0815 22025G35KT 9999 BKN030 
      TEMPO 0806/0815 6000 -SHRA BKN015 PROB30 
      TEMPO 0808/0812 4000 SHRA BKN010
      
TAF EGYM 080558Z 0806/0815 20018G28KT 9999 SCT025 BKN035 
      TEMPO 0806/0815 -SHRA BKN018 PROB40 
      TEMPO 0811/0815 6000 RA SCT012 BKN018
      
TAF EGYP 080419Z 0806/0824 26015KT 9999 SCT030 
      BECMG 0806/0809 21016G26KT PROB30 
      TEMPO 0807/0814 SCT022 
      BECMG 0811/0814 20015KT 
      BECMG 0816/0818 15008KT
      

About You

Log In Register UKGA membership

Airfields

Interactive airfield map Search by name Search by postcode Search by location Fuel prices Pilot reviews Latest
(No favourites selected)

Flight planning

Flight planning New flightplan NOTAM map LARS map & NOTAMs Danger area, mil. & TRA activations Weather map GPS route download Find waypoints Your waypoints New waypoint

Forums

Forums Currently discussing "Is this from you as it appeared min my SCAM folder?"

Other items

Articles Events Links News Surveys Tips Other users Feedback UKGA membership About UKGA